createdAt,value
2018-11-27T00:01:00.296Z,21.70
2018-11-27T00:06:22.813Z,21.60
2018-11-27T00:08:57.094Z,21.50
2018-11-27T00:15:07.162Z,21.40
2018-11-27T00:20:20.238Z,21.30
2018-11-27T00:28:44.930Z,21.10
2018-11-27T00:31:23.731Z,21.10
2018-11-27T00:34:01.951Z,21.10
2018-11-27T00:42:28.138Z,21.00
2018-11-27T00:48:03.994Z,21.00
2018-11-27T00:50:38.074Z,21.00
2018-11-27T00:53:14.346Z,21.00
2018-11-27T00:55:54.792Z,21.00
2018-11-27T00:58:34.051Z,21.00
2018-11-27T01:03:53.870Z,20.90
2018-11-27T01:06:29.928Z,20.80
2018-11-27T01:09:08.010Z,20.70
2018-11-27T01:15:08.905Z,20.60
2018-11-27T01:17:57.747Z,20.50
2018-11-27T01:20:52.571Z,20.40
2018-11-27T01:23:28.485Z,20.40
2018-11-27T01:26:30.340Z,20.30
2018-11-27T01:29:09.235Z,20.20
2018-11-27T01:31:43.164Z,20.20
2018-11-27T01:34:18.474Z,20.10
2018-11-27T01:36:58.605Z,20.00
2018-11-27T01:39:32.478Z,20.00
2018-11-27T01:42:06.708Z,20.00
2018-11-27T01:44:42.820Z,20.00
2018-11-27T01:47:15.862Z,19.90
2018-11-27T01:49:51.523Z,19.90
2018-11-27T01:52:24.203Z,19.90
2018-11-27T01:55:05.140Z,19.90
2018-11-27T01:57:38.544Z,19.90
2018-11-27T02:00:16.677Z,19.90
2018-11-27T02:02:53.787Z,19.80
2018-11-27T02:05:33.611Z,19.80
2018-11-27T02:08:06.881Z,19.70
2018-11-27T02:10:39.842Z,19.70
2018-11-27T02:13:14.623Z,19.60
2018-11-27T02:15:47.410Z,19.60
2018-11-27T02:18:21.782Z,19.50
2018-11-27T02:20:55.894Z,19.50
2018-11-27T02:23:29.798Z,19.40
2018-11-27T02:26:06.579Z,19.50
2018-11-27T02:28:41.399Z,19.50
2018-11-27T02:34:19.887Z,19.50
2018-11-27T02:36:58.806Z,19.50
2018-11-27T02:39:36.600Z,19.40
2018-11-27T02:43:11.746Z,19.40
2018-11-27T02:45:45.069Z,19.40
2018-11-27T02:48:17.936Z,19.30
2018-11-27T02:50:51.997Z,19.30
2018-11-27T02:53:25.214Z,19.30
2018-11-27T02:55:57.820Z,19.30
2018-11-27T02:58:33.314Z,19.30
2018-11-27T03:01:10.334Z,19.30
2018-11-27T03:03:46.245Z,19.30
2018-11-27T03:06:21.644Z,19.20
2018-11-27T03:08:54.798Z,19.20
2018-11-27T03:11:29.625Z,19.20
2018-11-27T03:14:11.511Z,19.20
2018-11-27T03:16:45.253Z,19.20
2018-11-27T03:19:17.961Z,19.10
2018-11-27T03:21:51.084Z,19.10
2018-11-27T03:27:47.334Z,19.10
2018-11-27T03:30:22.110Z,18.90
2018-11-27T03:32:56.905Z,18.90
2018-11-27T03:35:29.758Z,18.80
2018-11-27T03:38:03.451Z,18.70
2018-11-27T03:43:32.828Z,18.60
2018-11-27T03:46:09.422Z,18.60
2018-11-27T03:48:47.490Z,18.60
2018-11-27T03:51:20.432Z,18.60
2018-11-27T03:53:58.057Z,18.60
2018-11-27T03:56:31.897Z,18.50
2018-11-27T03:59:05.721Z,18.50
2018-11-27T04:01:39.533Z,18.50
2018-11-27T04:04:13.932Z,18.40
2018-11-27T04:06:47.819Z,18.40
2018-11-27T04:09:21.687Z,18.30
2018-11-27T04:11:54.522Z,18.30
2018-11-27T04:14:28.307Z,18.20
2018-11-27T04:17:01.767Z,18.20
2018-11-27T04:19:36.427Z,18.20
2018-11-27T04:22:21.156Z,18.10
2018-11-27T04:25:09.675Z,18.10
2018-11-27T04:27:53.425Z,18.10
2018-11-27T04:30:27.204Z,18.10
2018-11-27T04:33:02.169Z,18.10
2018-11-27T04:35:35.041Z,18.10
2018-11-27T04:38:14.832Z,18.00
2018-11-27T04:40:51.785Z,18.00
2018-11-27T04:43:29.138Z,17.90
2018-11-27T04:46:05.373Z,17.90
2018-11-27T04:48:43.505Z,17.90
2018-11-27T04:51:24.382Z,17.90
2018-11-27T04:54:06.479Z,17.80
2018-11-27T04:56:42.419Z,17.80
2018-11-27T05:02:10.012Z,17.80
2018-11-27T05:04:45.995Z,17.80
2018-11-27T05:07:24.144Z,17.80
2018-11-27T05:10:00.289Z,17.70
2018-11-27T05:12:33.982Z,17.60
2018-11-27T05:15:11.093Z,17.60
2018-11-27T05:17:48.278Z,17.60
2018-11-27T05:20:30.206Z,17.60
2018-11-27T05:23:06.074Z,17.60
2018-11-27T05:25:44.577Z,17.60
2018-11-27T05:28:23.631Z,17.60
2018-11-27T05:30:58.875Z,17.60
2018-11-27T05:33:31.944Z,17.60
2018-11-27T05:36:05.964Z,17.40
2018-11-27T05:38:41.468Z,17.30
2018-11-27T05:41:19.173Z,17.20
2018-11-27T05:43:55.694Z,17.20
2018-11-27T05:46:32.425Z,17.20
2018-11-27T05:49:10.503Z,17.10
2018-11-27T05:51:44.176Z,17.10
2018-11-27T05:54:19.794Z,17.10
2018-11-27T05:56:54.930Z,17.00
2018-11-27T05:59:30.692Z,17.00
2018-11-27T06:05:21.521Z,16.90
2018-11-27T06:07:55.841Z,16.80
2018-11-27T06:10:29.619Z,16.80
2018-11-27T06:13:04.765Z,16.80
2018-11-27T06:15:41.915Z,16.80
2018-11-27T06:18:19.860Z,16.70
2018-11-27T06:24:23.672Z,16.70
2018-11-27T06:26:56.055Z,16.70
2018-11-27T06:29:29.250Z,16.70
2018-11-27T06:32:34.411Z,16.70
2018-11-27T06:35:06.752Z,16.70
2018-11-27T06:37:39.179Z,16.70
2018-11-27T06:40:14.715Z,16.80
2018-11-27T06:42:47.142Z,16.80
2018-11-27T06:45:21.481Z,16.80
2018-11-27T06:47:54.738Z,16.80
2018-11-27T06:50:27.334Z,16.90
2018-11-27T06:52:59.961Z,16.80
2018-11-27T06:55:32.317Z,16.80
2018-11-27T06:58:04.656Z,16.80
2018-11-27T07:00:37.010Z,16.80
2018-11-27T07:03:13.454Z,16.80
2018-11-27T07:05:45.854Z,16.70
2018-11-27T07:11:39.160Z,16.70
2018-11-27T07:14:11.606Z,16.70
2018-11-27T07:16:43.866Z,16.60
2018-11-27T07:19:16.898Z,16.50
2018-11-27T07:21:49.308Z,16.50
2018-11-27T07:27:42.943Z,16.60
2018-11-27T07:30:18.734Z,16.60
2018-11-27T07:32:51.246Z,16.60
2018-11-27T07:38:55.037Z,16.60
2018-11-27T07:41:27.587Z,16.60
2018-11-27T07:44:00.183Z,16.60
2018-11-27T07:46:32.658Z,16.60
2018-11-27T07:49:53.095Z,16.50
2018-11-27T07:52:26.050Z,16.40
2018-11-27T07:54:59.039Z,16.30
2018-11-27T07:57:32.004Z,16.20
2018-11-27T08:00:04.914Z,16.10
2018-11-27T08:02:38.599Z,16.10
2018-11-27T08:05:15.691Z,16.10
2018-11-27T08:07:50.615Z,16.10
2018-11-27T08:10:26.596Z,16.10
2018-11-27T08:12:59.659Z,16.00
2018-11-27T08:18:52.779Z,15.90
2018-11-27T08:21:25.281Z,15.90
2018-11-27T08:23:57.792Z,15.90
2018-11-27T08:26:30.366Z,16.00
2018-11-27T08:29:02.909Z,16.00
2018-11-27T08:31:35.377Z,16.00
2018-11-27T08:34:07.927Z,15.90
2018-11-27T08:36:40.439Z,15.80
2018-11-27T08:39:13.517Z,15.80
2018-11-27T08:41:46.313Z,15.80
2018-11-27T08:44:18.736Z,15.70
2018-11-27T08:46:51.142Z,15.70
2018-11-27T08:49:24.481Z,15.70
2018-11-27T08:51:56.917Z,15.70
2018-11-27T08:54:29.407Z,15.70
2018-11-27T08:57:02.257Z,15.70
2018-11-27T08:59:34.734Z,15.70
2018-11-27T09:02:07.439Z,15.60
2018-11-27T09:04:39.890Z,15.60
2018-11-27T09:07:12.406Z,15.60
2018-11-27T09:09:44.882Z,15.70
2018-11-27T09:12:17.238Z,15.70
2018-11-27T09:14:49.713Z,15.60
2018-11-27T09:17:22.208Z,15.60
2018-11-27T09:19:54.840Z,15.60
2018-11-27T09:22:27.303Z,15.50
2018-11-27T09:24:59.755Z,15.50
2018-11-27T09:27:32.209Z,15.50
2018-11-27T09:30:04.670Z,15.60
2018-11-27T09:32:37.073Z,15.60
2018-11-27T09:35:09.902Z,15.70
2018-11-27T09:37:42.421Z,15.80
2018-11-27T09:40:17.374Z,15.90
2018-11-27T09:42:50.127Z,16.00
2018-11-27T09:45:24.562Z,16.10
2018-11-27T09:47:59.154Z,16.10
2018-11-27T09:50:31.585Z,16.10
2018-11-27T09:53:04.077Z,16.20
2018-11-27T09:55:36.472Z,16.30
2018-11-27T09:58:09.917Z,16.30
2018-11-27T10:00:42.367Z,16.20
2018-11-27T10:03:18.025Z,16.10
2018-11-27T10:05:50.669Z,16.00
2018-11-27T10:08:23.554Z,16.00
2018-11-27T10:10:56.130Z,15.90
2018-11-27T10:16:59.553Z,15.90
2018-11-27T10:19:32.373Z,15.90
2018-11-27T10:22:05.226Z,16.10
2018-11-27T10:24:37.980Z,16.20
2018-11-27T10:27:10.741Z,16.30
2018-11-27T10:29:43.670Z,16.30
2018-11-27T10:32:16.690Z,16.40
2018-11-27T10:34:49.506Z,16.50
2018-11-27T10:37:22.273Z,16.50
2018-11-27T10:39:55.099Z,16.60
2018-11-27T10:42:30.059Z,16.60
2018-11-27T10:45:01.097Z,16.50
2018-11-27T10:47:34.083Z,16.30
2018-11-27T10:50:09.498Z,16.10
2018-11-27T10:52:43.530Z,16.00
2018-11-27T10:55:18.598Z,16.00
2018-11-27T11:01:26.763Z,16.10
2018-11-27T11:03:59.221Z,16.10
2018-11-27T11:06:31.605Z,16.10
2018-11-27T11:09:04.853Z,16.00
2018-11-27T11:12:14.613Z,15.90
2018-11-27T11:14:51.689Z,16.00
2018-11-27T11:17:24.701Z,16.00
2018-11-27T11:19:57.597Z,16.10
2018-11-27T11:22:30.633Z,16.10
2018-11-27T11:25:03.498Z,16.20
2018-11-27T11:27:36.654Z,16.30
2018-11-27T11:30:15.981Z,16.40
2018-11-27T11:32:56.275Z,16.40
2018-11-27T11:35:29.176Z,16.50
2018-11-27T11:38:03.438Z,16.60
2018-11-27T11:40:38.284Z,16.60
2018-11-27T11:43:15.823Z,16.60
2018-11-27T11:45:52.451Z,16.60
2018-11-27T11:48:27.815Z,16.60
2018-11-27T11:51:00.779Z,16.50
2018-11-27T11:53:34.078Z,16.50
2018-11-27T11:56:07.096Z,16.60
2018-11-27T11:58:40.824Z,16.60
2018-11-27T12:01:13.741Z,16.50
2018-11-27T12:03:46.685Z,16.60
2018-11-27T12:06:19.908Z,16.60
2018-11-27T12:09:00.339Z,16.50
2018-11-27T12:11:34.030Z,16.60
2018-11-27T12:14:11.033Z,16.50
2018-11-27T12:16:44.955Z,16.50
2018-11-27T12:19:18.557Z,16.50
2018-11-27T12:21:52.686Z,16.60
2018-11-27T12:24:30.108Z,16.60
2018-11-27T12:27:03.121Z,16.60
2018-11-27T12:29:38.126Z,16.60
2018-11-27T12:35:15.582Z,16.60
2018-11-27T12:37:49.611Z,16.60
2018-11-27T12:43:43.945Z,16.80
2018-11-27T12:46:19.259Z,16.80
2018-11-27T12:48:52.853Z,16.90
2018-11-27T12:51:25.967Z,16.90
2018-11-27T12:54:02.739Z,17.00
2018-11-27T12:56:36.046Z,17.10
2018-11-27T12:59:16.553Z,17.10
2018-11-27T13:01:49.464Z,17.10
2018-11-27T13:04:22.680Z,17.20
2018-11-27T13:10:27.576Z,18.20
2018-11-27T13:13:01.280Z,18.70
2018-11-27T13:15:34.017Z,18.80
2018-11-27T13:18:06.630Z,18.70
2018-11-27T13:20:39.482Z,19.00
2018-11-27T13:23:12.210Z,19.30
2018-11-27T13:25:44.979Z,19.30
2018-11-27T13:28:18.348Z,19.50
2018-11-27T13:30:59.766Z,19.70
2018-11-27T13:33:43.831Z,19.80
2018-11-27T13:36:16.938Z,20.00
2018-11-27T13:38:49.519Z,20.20
2018-11-27T13:44:43.365Z,20.30
2018-11-27T13:47:15.838Z,20.40
2018-11-27T13:49:48.457Z,20.40
2018-11-27T13:52:20.795Z,20.20
2018-11-27T13:54:53.208Z,20.40
2018-11-27T13:57:25.602Z,20.60
2018-11-27T13:59:57.964Z,20.70
2018-11-27T14:02:31.290Z,20.60
2018-11-27T14:05:04.193Z,20.60
2018-11-27T14:07:37.177Z,20.80
2018-11-27T14:10:11.913Z,21.10
2018-11-27T14:12:44.431Z,20.80
2018-11-27T14:15:21.098Z,21.00
2018-11-27T14:17:55.020Z,21.70
2018-11-27T14:20:27.799Z,21.60
2018-11-27T14:23:00.604Z,21.40
2018-11-27T14:25:33.314Z,21.50
2018-11-27T14:28:05.742Z,21.40
2018-11-27T14:30:38.310Z,21.20
2018-11-27T14:33:12.281Z,21.60
2018-11-27T14:35:45.571Z,21.60
2018-11-27T14:38:18.218Z,21.70
2018-11-27T14:40:50.746Z,22.10
2018-11-27T14:43:23.307Z,21.80
2018-11-27T14:46:24.462Z,22.10
2018-11-27T14:52:09.853Z,22.30
2018-11-27T14:54:42.324Z,21.90
2018-11-27T15:00:47.264Z,22.10
2018-11-27T15:03:20.825Z,22.80
2018-11-27T15:05:58.136Z,22.90
2018-11-27T15:08:30.776Z,23.20
2018-11-27T15:11:03.524Z,23.20
2018-11-27T15:16:19.930Z,22.80
2018-11-27T15:18:52.844Z,22.40
2018-11-27T15:21:40.847Z,22.80
2018-11-27T15:24:19.625Z,22.60
2018-11-27T15:26:54.963Z,22.40
2018-11-27T15:32:57.451Z,23.00
2018-11-27T15:35:30.495Z,23.00
2018-11-27T15:38:07.049Z,22.90
2018-11-27T15:40:43.390Z,23.00
2018-11-27T15:43:17.795Z,22.60
2018-11-27T15:45:52.034Z,22.80
2018-11-27T15:48:24.749Z,22.90
2018-11-27T15:50:58.680Z,23.20
2018-11-27T15:53:31.962Z,23.80
2018-11-27T15:56:04.847Z,24.20
2018-11-27T15:58:37.545Z,24.40
2018-11-27T16:01:12.916Z,23.80
2018-11-27T16:03:45.510Z,23.80
2018-11-27T16:06:19.676Z,23.00
2018-11-27T16:08:53.394Z,23.20
2018-11-27T16:11:26.047Z,23.50
2018-11-27T16:13:58.662Z,23.30
2018-11-27T16:16:32.136Z,23.30
2018-11-27T16:19:04.800Z,23.50
2018-11-27T16:21:38.111Z,24.10
2018-11-27T16:24:11.248Z,24.40
2018-11-27T16:26:43.941Z,24.30
2018-11-27T16:29:17.958Z,24.30
2018-11-27T16:31:50.630Z,24.20
2018-11-27T16:34:27.736Z,24.30
2018-11-27T16:37:02.711Z,24.30
2018-11-27T16:39:38.129Z,24.10
2018-11-27T16:42:14.663Z,24.30
2018-11-27T16:44:48.026Z,24.50
2018-11-27T16:47:21.277Z,24.70
2018-11-27T16:49:59.360Z,24.00
2018-11-27T16:52:34.790Z,24.10
2018-11-27T16:55:08.820Z,24.20
2018-11-27T16:57:41.783Z,24.60
2018-11-27T17:00:20.349Z,24.60
2018-11-27T17:02:54.929Z,24.70
2018-11-27T17:05:29.040Z,24.30
2018-11-27T17:11:35.130Z,24.20
2018-11-27T17:14:07.543Z,24.30
2018-11-27T17:16:45.799Z,24.50
2018-11-27T17:19:22.568Z,24.80
2018-11-27T17:21:58.300Z,25.00
2018-11-27T17:24:32.027Z,25.00
2018-11-27T17:27:04.664Z,25.40
2018-11-27T17:29:36.843Z,25.50
2018-11-27T17:32:13.357Z,25.10
2018-11-27T17:34:45.952Z,25.20
2018-11-27T17:37:33.479Z,25.00
2018-11-27T17:40:06.107Z,24.50
2018-11-27T17:42:42.439Z,24.70
2018-11-27T17:45:16.917Z,25.10
2018-11-27T17:47:50.144Z,26.40
2018-11-27T17:50:23.284Z,26.00
2018-11-27T17:52:56.657Z,25.70
2018-11-27T17:55:31.994Z,25.50
2018-11-27T17:58:08.103Z,24.60
2018-11-27T18:00:45.903Z,24.60
2018-11-27T18:03:19.663Z,24.80
2018-11-27T18:06:04.342Z,25.10
2018-11-27T18:08:40.362Z,25.90
2018-11-27T18:11:14.551Z,25.50
2018-11-27T18:13:51.618Z,25.90
2018-11-27T18:16:25.417Z,25.80
2018-11-27T18:18:58.913Z,25.00
2018-11-27T18:21:34.630Z,25.50
2018-11-27T18:26:52.105Z,24.60
2018-11-27T18:29:30.229Z,24.50
2018-11-27T18:32:06.431Z,24.60
2018-11-27T18:34:45.743Z,25.00
2018-11-27T18:37:31.166Z,25.40
2018-11-27T18:40:09.300Z,25.20
2018-11-27T18:42:52.370Z,25.80
2018-11-27T18:45:29.112Z,26.60
2018-11-27T18:48:01.891Z,26.50
2018-11-27T18:50:51.380Z,26.30
2018-11-27T18:53:28.658Z,26.30
2018-11-27T18:56:02.011Z,25.80
2018-11-27T18:58:39.808Z,26.00
2018-11-27T19:01:15.743Z,25.40
2018-11-27T19:03:51.239Z,24.30
2018-11-27T19:06:24.871Z,24.20
2018-11-27T19:09:01.551Z,24.30
2018-11-27T19:20:09.656Z,25.30
2018-11-27T19:22:44.418Z,25.50
2018-11-27T19:25:19.350Z,25.60
2018-11-27T19:30:45.381Z,26.30
2018-11-27T19:33:19.768Z,26.50
2018-11-27T19:39:15.929Z,25.20
2018-11-27T19:47:26.653Z,24.90
2018-11-27T19:50:02.603Z,25.50
2018-11-27T19:52:43.095Z,25.80
2018-11-27T19:55:22.695Z,25.70
2018-11-27T19:57:56.672Z,25.20
2018-11-27T20:00:36.703Z,25.20
2018-11-27T20:03:18.437Z,25.00
2018-11-27T20:05:53.022Z,25.50
2018-11-27T20:08:31.915Z,25.80
2018-11-27T20:11:11.228Z,25.30
2018-11-27T20:13:53.105Z,25.10
2018-11-27T20:16:59.245Z,25.40
2018-11-27T20:19:39.834Z,25.10
2018-11-27T20:22:19.571Z,25.00
2018-11-27T20:25:00.767Z,24.80
2018-11-27T20:27:37.121Z,24.90
2018-11-27T20:30:22.147Z,24.90
2018-11-27T20:33:05.170Z,25.10
2018-11-27T20:35:52.025Z,25.20
2018-11-27T20:38:34.764Z,25.40
2018-11-27T20:41:10.552Z,25.60
2018-11-27T20:47:07.754Z,25.50
2018-11-27T20:49:41.935Z,25.80
2018-11-27T20:52:16.339Z,25.70
2018-11-27T20:54:48.752Z,25.50
2018-11-27T21:00:57.056Z,25.90
2018-11-27T21:03:30.322Z,25.60
2018-11-27T21:06:03.598Z,25.70
2018-11-27T21:08:36.911Z,25.30
2018-11-27T21:11:11.121Z,25.30
2018-11-27T21:13:46.926Z,25.10
2018-11-27T21:16:21.584Z,24.80
2018-11-27T21:19:07.869Z,24.60
2018-11-27T21:21:52.846Z,24.30
2018-11-27T21:24:25.938Z,24.30
2018-11-27T21:27:01.584Z,24.20
2018-11-27T21:32:19.465Z,23.70
2018-11-27T21:34:54.219Z,23.50
2018-11-27T21:37:27.314Z,23.50
2018-11-27T21:39:59.671Z,23.60
2018-11-27T21:42:41.707Z,23.60
2018-11-27T21:45:29.698Z,23.40
2018-11-27T21:48:05.539Z,23.20
2018-11-27T21:50:43.295Z,23.10
2018-11-27T21:56:39.215Z,23.50
2018-11-27T21:59:14.053Z,24.10
2018-11-27T22:01:48.122Z,23.80
2018-11-27T22:04:21.495Z,23.40
2018-11-27T22:06:53.879Z,23.40
2018-11-27T22:09:27.457Z,23.60
2018-11-27T22:12:01.010Z,23.70
2018-11-27T22:14:35.281Z,23.60
2018-11-27T22:17:08.002Z,23.40
2018-11-27T22:19:41.120Z,23.90
2018-11-27T22:22:14.342Z,23.70
2018-11-27T22:24:48.119Z,23.40
2018-11-27T22:27:27.023Z,23.30
2018-11-27T22:30:01.273Z,23.10
2018-11-27T22:32:36.224Z,23.10
2018-11-27T22:35:11.162Z,23.10
2018-11-27T22:37:44.722Z,22.90
2018-11-27T22:40:24.734Z,23.00
2018-11-27T22:43:00.169Z,23.10
2018-11-27T22:45:36.706Z,22.90
2018-11-27T22:48:14.962Z,23.00
2018-11-27T22:50:48.307Z,22.60
2018-11-27T22:53:20.844Z,22.50
2018-11-27T22:56:00.305Z,22.20
2018-11-27T22:58:32.038Z,22.10
2018-11-27T23:01:05.994Z,22.00
2018-11-27T23:03:38.507Z,22.00
2018-11-27T23:06:15.766Z,21.90
2018-11-27T23:08:50.218Z,21.70
2018-11-27T23:11:25.361Z,21.60
2018-11-27T23:13:59.358Z,21.40
2018-11-27T23:16:32.333Z,21.30
2018-11-27T23:19:04.892Z,21.30
2018-11-27T23:21:40.142Z,21.30
2018-11-27T23:24:12.830Z,21.30
2018-11-27T23:26:51.777Z,21.20
2018-11-27T23:29:25.631Z,21.20
2018-11-27T23:32:01.229Z,21.00
2018-11-27T23:34:34.435Z,21.00
2018-11-27T23:37:07.918Z,21.00
2018-11-27T23:39:40.362Z,20.90
2018-11-27T23:42:15.025Z,21.00
2018-11-27T23:44:48.263Z,21.00
2018-11-27T23:47:20.954Z,20.80
2018-11-27T23:49:56.104Z,20.70
2018-11-27T23:52:31.040Z,20.50
2018-11-27T23:55:08.151Z,20.40
2018-11-27T23:57:42.398Z,20.40
